createdAt,value
2022-12-03T00:01:53.005Z,72.14
2022-12-03T00:04:36.076Z,72.01
2022-12-03T00:07:18.936Z,72.13
2022-12-03T00:10:01.779Z,72.02
2022-12-03T00:12:46.012Z,71.88
2022-12-03T00:15:28.942Z,72.07
2022-12-03T00:18:11.820Z,72.08
2022-12-03T00:20:54.675Z,72.16
2022-12-03T00:23:42.061Z,72.03
2022-12-03T00:26:25.414Z,71.89
2022-12-03T00:29:11.291Z,71.99
2022-12-03T00:31:54.126Z,72.34
2022-12-03T00:34:37.002Z,72.18
2022-12-03T00:37:19.845Z,72.04
2022-12-03T00:40:03.101Z,72.43
2022-12-03T00:42:45.938Z,72.09
2022-12-03T00:45:30.170Z,72.05
2022-12-03T00:48:13.441Z,72.07
2022-12-03T00:50:56.320Z,72.14
2022-12-03T00:53:39.169Z,72.32
2022-12-03T00:56:22.033Z,72.44
2022-12-03T00:59:06.026Z,72.32
2022-12-03T01:01:50.619Z,72.54
2022-12-03T01:04:34.908Z,72.57
2022-12-03T01:07:17.870Z,72.71
2022-12-03T01:10:00.712Z,72.48
2022-12-03T01:12:43.559Z,72.31
2022-12-03T01:15:26.404Z,72.07
2022-12-03T01:18:10.573Z,72.20
2022-12-03T01:20:53.466Z,72.31
2022-12-03T01:23:36.329Z,72.34
2022-12-03T01:26:19.220Z,72.11
2022-12-03T01:29:02.070Z,72.29
2022-12-03T01:32:02.702Z,72.39
2022-12-03T01:34:47.869Z,72.07
2022-12-03T01:37:30.782Z,72.36
2022-12-03T01:40:19.662Z,72.14
2022-12-03T01:43:02.502Z,72.01
2022-12-03T01:45:45.354Z,72.37
2022-12-03T01:48:32.034Z,71.86
2022-12-03T01:51:16.725Z,71.95
2022-12-03T01:54:00.550Z,71.91
2022-12-03T01:56:43.448Z,71.75
2022-12-03T01:59:34.277Z,72.02
2022-12-03T02:02:22.098Z,71.90
2022-12-03T02:05:15.555Z,71.83
2022-12-03T02:08:00.522Z,71.82
2022-12-03T02:10:43.592Z,72.29
2022-12-03T02:13:26.727Z,72.19
2022-12-03T02:16:10.043Z,72.17
2022-12-03T02:18:53.080Z,71.86
2022-12-03T02:21:48.843Z,72.13
2022-12-03T02:24:41.679Z,72.13
2022-12-03T02:27:26.316Z,72.17
2022-12-03T02:30:10.907Z,72.35
2022-12-03T02:32:55.172Z,72.26
2022-12-03T02:35:39.668Z,71.99
2022-12-03T02:38:24.100Z,72.17
2022-12-03T02:41:10.292Z,72.09
2022-12-03T02:43:53.929Z,71.93
2022-12-03T02:46:37.359Z,72.16
2022-12-03T02:49:20.298Z,72.33
2022-12-03T02:52:03.571Z,72.21
2022-12-03T02:54:46.739Z,72.57
2022-12-03T02:57:30.119Z,72.55
2022-12-03T03:00:17.472Z,72.47
2022-12-03T03:03:01.379Z,72.62
2022-12-03T03:05:44.841Z,72.68
2022-12-03T03:08:29.785Z,72.55
2022-12-03T03:11:13.077Z,72.64
2022-12-03T03:13:56.536Z,72.51
2022-12-03T03:16:40.934Z,72.35
2022-12-03T03:19:24.911Z,72.54
2022-12-03T03:22:07.851Z,72.71
2022-12-03T03:24:51.005Z,72.66
2022-12-03T03:27:35.175Z,72.33
2022-12-03T03:30:18.394Z,72.17
2022-12-03T03:33:02.893Z,72.28
2022-12-03T03:35:46.596Z,71.62
2022-12-03T03:38:31.569Z,71.92
2022-12-03T03:41:15.823Z,71.58
2022-12-03T03:43:59.436Z,71.69
2022-12-03T03:46:42.726Z,71.95
2022-12-03T03:49:27.319Z,71.72
2022-12-03T03:52:11.841Z,71.83
2022-12-03T03:54:54.664Z,71.88
2022-12-03T03:57:38.841Z,71.98
2022-12-03T04:00:21.897Z,71.93
2022-12-03T04:03:05.327Z,72.39
2022-12-03T04:05:51.012Z,72.20
2022-12-03T04:08:33.953Z,72.41
2022-12-03T04:11:34.187Z,72.18
2022-12-03T04:14:17.089Z,72.07
2022-12-03T04:17:00.392Z,72.05
2022-12-03T04:19:43.352Z,71.86
2022-12-03T04:22:41.876Z,71.81
2022-12-03T04:25:42.047Z,72.21
2022-12-03T04:28:42.525Z,72.18
2022-12-03T04:31:42.577Z,72.43
2022-12-03T04:34:43.397Z,72.24
2022-12-03T04:37:28.029Z,72.12
2022-12-03T04:40:31.388Z,72.33
2022-12-03T04:43:14.249Z,72.24
2022-12-03T04:45:57.131Z,72.53
2022-12-03T04:48:40.097Z,72.54
2022-12-03T04:51:23.007Z,72.33
2022-12-03T04:54:07.383Z,72.33
2022-12-03T04:56:50.324Z,72.19
2022-12-03T04:59:33.834Z,72.15
2022-12-03T05:02:16.756Z,72.08
2022-12-03T05:04:59.697Z,72.06
2022-12-03T05:07:42.797Z,72.02
2022-12-03T05:10:27.021Z,72.06
2022-12-03T05:13:09.954Z,71.82
2022-12-03T05:15:52.803Z,72.14
2022-12-03T05:18:35.692Z,71.82
2022-12-03T05:21:18.559Z,71.90
2022-12-03T05:24:01.603Z,72.06
2022-12-03T05:26:45.811Z,72.28
2022-12-03T05:29:28.688Z,72.16
2022-12-03T05:32:11.513Z,72.26
2022-12-03T05:34:55.644Z,72.09
2022-12-03T05:37:38.752Z,72.29
2022-12-03T05:40:22.184Z,72.21
2022-12-03T05:43:05.496Z,72.17
2022-12-03T05:45:48.457Z,72.09
2022-12-03T05:48:31.361Z,72.03
2022-12-03T05:51:14.266Z,71.80
2022-12-03T05:53:57.147Z,72.00
2022-12-03T05:56:39.998Z,71.83
2022-12-03T05:59:24.222Z,71.97
2022-12-03T06:02:07.183Z,72.02
2022-12-03T06:04:50.506Z,72.08
2022-12-03T06:07:33.577Z,72.08
2022-12-03T06:10:18.671Z,72.04
2022-12-03T06:13:02.188Z,72.04
2022-12-03T06:15:46.480Z,72.16
2022-12-03T06:18:29.376Z,72.11
2022-12-03T06:21:12.255Z,71.89
2022-12-03T06:23:55.121Z,72.04
2022-12-03T06:26:38.103Z,72.23
2022-12-03T06:29:20.968Z,71.84
2022-12-03T06:32:05.982Z,71.81
2022-12-03T06:34:48.886Z,71.89
2022-12-03T06:37:31.746Z,72.18
2022-12-03T06:40:16.753Z,72.45
2022-12-03T06:42:59.617Z,72.31
2022-12-03T06:45:47.571Z,72.38
2022-12-03T06:48:32.394Z,72.34
2022-12-03T06:51:15.040Z,72.49
2022-12-03T06:53:57.892Z,72.70
2022-12-03T06:56:45.176Z,73.23
2022-12-03T06:59:28.398Z,73.27
2022-12-03T07:02:12.411Z,73.11
2022-12-03T07:04:56.852Z,73.01
2022-12-03T07:07:39.900Z,73.26
2022-12-03T07:10:23.263Z,73.20
2022-12-03T07:13:06.113Z,72.96
2022-12-03T07:15:49.061Z,73.08
2022-12-03T07:18:31.967Z,73.36
2022-12-03T07:21:16.345Z,73.46
2022-12-03T07:23:59.228Z,73.41
2022-12-03T07:26:42.095Z,73.43
2022-12-03T07:29:25.222Z,73.78
2022-12-03T07:32:08.170Z,73.92
2022-12-03T07:34:51.305Z,73.85
2022-12-03T07:37:35.823Z,74.04
2022-12-03T07:40:18.964Z,74.43
2022-12-03T07:43:16.920Z,74.35
2022-12-03T07:45:59.827Z,74.37
2022-12-03T07:48:43.502Z,74.19
2022-12-03T07:51:31.977Z,74.03
2022-12-03T07:54:16.458Z,74.17
2022-12-03T07:57:01.594Z,74.21
2022-12-03T07:59:44.906Z,74.15
2022-12-03T08:02:27.894Z,74.03
2022-12-03T08:05:11.485Z,73.88
2022-12-03T08:07:54.654Z,73.88
2022-12-03T08:10:39.369Z,73.64
2022-12-03T08:13:22.196Z,73.64
2022-12-03T08:16:20.432Z,73.69
2022-12-03T08:19:06.530Z,73.56
2022-12-03T08:21:49.423Z,73.59
2022-12-03T08:24:32.543Z,73.48
2022-12-03T08:27:19.205Z,73.66
2022-12-03T08:30:05.683Z,73.57
2022-12-03T08:32:48.898Z,73.37
2022-12-03T08:35:32.403Z,73.38
2022-12-03T08:38:15.299Z,73.60
2022-12-03T08:40:58.194Z,73.45
2022-12-03T08:43:43.925Z,73.36
2022-12-03T08:46:27.231Z,73.47
2022-12-03T08:49:11.004Z,73.33
2022-12-03T08:51:58.448Z,73.28
2022-12-03T08:54:42.065Z,73.44
2022-12-03T08:57:28.883Z,73.14
2022-12-03T09:00:22.527Z,73.38
2022-12-03T09:03:12.039Z,73.63
2022-12-03T09:05:54.915Z,73.78
2022-12-03T09:08:38.132Z,73.87
2022-12-03T09:11:21.010Z,73.31
2022-12-03T09:14:04.088Z,73.12
2022-12-03T09:16:48.898Z,72.83
2022-12-03T09:19:31.974Z,72.63
2022-12-03T09:22:17.268Z,72.71
2022-12-03T09:25:00.143Z,72.90
2022-12-03T09:27:43.030Z,72.47
2022-12-03T09:30:26.061Z,72.58
2022-12-03T09:33:10.639Z,72.52
2022-12-03T09:35:53.289Z,72.65
2022-12-03T09:38:36.187Z,72.78
2022-12-03T09:41:19.139Z,72.74
2022-12-03T09:44:04.308Z,72.58
2022-12-03T09:46:49.262Z,73.70
2022-12-03T09:49:34.630Z,73.62
2022-12-03T09:52:23.531Z,73.37
2022-12-03T09:55:14.835Z,73.28
2022-12-03T09:57:58.680Z,72.11
2022-12-03T10:00:43.801Z,72.42
2022-12-03T10:03:30.977Z,72.37
2022-12-03T10:06:19.458Z,71.50
2022-12-03T10:09:02.512Z,71.66
2022-12-03T10:11:45.587Z,72.30
2022-12-03T10:14:29.506Z,72.52
2022-12-03T10:17:13.188Z,72.45
2022-12-03T10:19:56.355Z,71.65
2022-12-03T10:22:40.792Z,71.47
2022-12-03T10:25:24.051Z,71.49
2022-12-03T10:28:06.905Z,71.26
2022-12-03T10:30:55.349Z,71.70
2022-12-03T10:33:40.270Z,71.81
2022-12-03T10:36:25.830Z,71.85
2022-12-03T10:39:13.206Z,71.57
2022-12-03T10:42:15.396Z,71.84
2022-12-03T10:45:12.903Z,71.92
2022-12-03T10:48:07.561Z,72.04
2022-12-03T10:50:52.813Z,71.91
2022-12-03T10:53:37.703Z,72.00
2022-12-03T10:56:26.303Z,71.81
2022-12-03T10:59:14.131Z,71.91
2022-12-03T11:01:57.052Z,71.42
2022-12-03T11:04:42.502Z,71.60
2022-12-03T11:07:26.261Z,71.82
2022-12-03T11:10:14.729Z,72.53
2022-12-03T11:13:35.219Z,72.41
2022-12-03T11:16:51.600Z,71.66
2022-12-03T11:19:47.864Z,71.15
2022-12-03T11:22:41.718Z,71.89
2022-12-03T11:25:50.445Z,71.61
2022-12-03T11:28:54.080Z,71.68
2022-12-03T11:31:42.060Z,71.34
2022-12-03T11:34:50.721Z,70.80
2022-12-03T11:37:33.847Z,70.68
2022-12-03T11:40:39.335Z,70.96
2022-12-03T11:43:56.246Z,71.00
2022-12-03T11:46:44.860Z,71.02
2022-12-03T11:49:38.041Z,70.87
2022-12-03T11:52:26.845Z,70.82
2022-12-03T11:55:18.035Z,70.74
2022-12-03T11:58:03.083Z,70.86
2022-12-03T12:00:50.856Z,71.16
2022-12-03T12:03:35.854Z,71.22
2022-12-03T12:06:20.835Z,71.39
2022-12-03T12:09:08.605Z,71.13
2022-12-03T12:11:51.466Z,71.03
2022-12-03T12:14:35.041Z,70.85
2022-12-03T12:17:32.515Z,70.79
2022-12-03T12:20:25.708Z,70.75
2022-12-03T12:23:23.244Z,70.93
2022-12-03T12:26:08.246Z,70.78
2022-12-03T12:28:51.104Z,70.71
2022-12-03T12:31:33.987Z,70.83
2022-12-03T12:34:16.932Z,71.05
2022-12-03T12:37:01.752Z,70.83
2022-12-03T12:39:44.643Z,70.90
2022-12-03T12:42:34.917Z,71.00
2022-12-03T12:45:20.318Z,70.89
2022-12-03T12:48:11.878Z,70.85
2022-12-03T12:51:01.143Z,70.70
2022-12-03T12:53:44.033Z,71.05
2022-12-03T12:56:30.154Z,70.99
2022-12-03T12:59:16.206Z,70.82
2022-12-03T13:01:59.327Z,70.77
2022-12-03T13:04:42.192Z,70.63
2022-12-03T13:07:26.815Z,70.85
2022-12-03T13:10:33.325Z,71.06
2022-12-03T13:13:25.992Z,71.01
2022-12-03T13:16:19.079Z,71.05
2022-12-03T13:19:02.809Z,70.88
2022-12-03T13:21:46.225Z,70.84
2022-12-03T13:24:34.902Z,70.78
2022-12-03T13:27:29.502Z,70.63
2022-12-03T13:30:17.973Z,70.43
2022-12-03T13:33:09.432Z,70.35
2022-12-03T13:35:52.786Z,70.50
2022-12-03T13:38:35.783Z,70.86
2022-12-03T13:41:38.790Z,71.03
2022-12-03T13:44:21.856Z,71.11
2022-12-03T13:47:21.780Z,71.10
2022-12-03T13:50:21.262Z,71.09
2022-12-03T13:53:10.385Z,71.14
2022-12-03T13:55:57.740Z,71.30
2022-12-03T13:58:40.971Z,71.17
2022-12-03T14:01:24.122Z,71.12
2022-12-03T14:04:07.250Z,71.15
2022-12-03T14:06:51.660Z,71.01
2022-12-03T14:09:34.580Z,71.07
2022-12-03T14:12:33.879Z,71.30
2022-12-03T14:15:17.162Z,70.97
2022-12-03T14:18:00.185Z,71.01
2022-12-03T14:20:43.172Z,70.92
2022-12-03T14:23:27.703Z,70.96
2022-12-03T14:26:10.452Z,71.23
2022-12-03T14:28:53.428Z,71.30
2022-12-03T14:31:36.547Z,71.10
2022-12-03T14:34:19.671Z,71.15
2022-12-03T14:37:02.742Z,71.00
2022-12-03T14:39:47.190Z,71.15
2022-12-03T14:42:29.995Z,71.17
2022-12-03T14:45:12.967Z,71.04
2022-12-03T14:47:56.016Z,71.25
2022-12-03T14:50:41.745Z,71.14
2022-12-03T14:53:27.383Z,71.14
2022-12-03T14:56:12.114Z,71.36
2022-12-03T14:58:55.111Z,71.45
2022-12-03T15:01:38.320Z,71.44
2022-12-03T15:04:21.218Z,71.20
2022-12-03T15:07:04.241Z,71.23
2022-12-03T15:09:47.069Z,71.22
2022-12-03T15:12:31.700Z,71.19
2022-12-03T15:15:14.716Z,71.17
2022-12-03T15:17:57.538Z,71.42
2022-12-03T15:20:40.367Z,71.26
2022-12-03T15:23:23.231Z,71.74
2022-12-03T15:26:06.330Z,71.81
2022-12-03T15:28:50.578Z,71.94
2022-12-03T15:31:33.526Z,71.99
2022-12-03T15:34:22.235Z,72.01
2022-12-03T15:37:05.801Z,72.25
2022-12-03T15:39:49.059Z,72.39
2022-12-03T15:42:32.002Z,72.80
2022-12-03T15:45:16.291Z,73.01
2022-12-03T15:47:59.264Z,73.35
2022-12-03T15:50:42.155Z,73.52
2022-12-03T15:53:25.042Z,73.60
2022-12-03T15:56:08.717Z,73.86
2022-12-03T15:58:51.601Z,73.86
2022-12-03T16:01:35.807Z,74.12
2022-12-03T16:04:18.686Z,74.11
2022-12-03T16:07:01.588Z,73.85
2022-12-03T16:09:44.412Z,73.89
2022-12-03T16:12:27.245Z,74.62
2022-12-03T16:15:10.823Z,74.46
2022-12-03T16:17:55.046Z,74.21
2022-12-03T16:20:37.888Z,74.37
2022-12-03T16:23:20.754Z,74.25
2022-12-03T16:26:03.591Z,74.30
2022-12-03T16:28:46.474Z,74.13
2022-12-03T16:31:29.497Z,74.07
2022-12-03T16:34:13.817Z,73.95
2022-12-03T16:36:56.621Z,73.99
2022-12-03T16:39:39.744Z,73.90
2022-12-03T16:42:24.976Z,73.88
2022-12-03T16:45:51.166Z,73.59
2022-12-03T16:48:34.237Z,73.58
2022-12-03T16:51:19.277Z,73.70
2022-12-03T16:54:02.156Z,73.64
2022-12-03T16:56:44.972Z,73.71
2022-12-03T16:59:27.808Z,74.03
2022-12-03T17:02:12.093Z,74.25
2022-12-03T17:04:55.036Z,74.26
2022-12-03T17:07:39.418Z,74.88
2022-12-03T17:10:22.346Z,74.83
2022-12-03T17:13:10.009Z,75.76
2022-12-03T17:15:53.622Z,75.25
2022-12-03T17:18:36.531Z,74.94
2022-12-03T17:21:19.360Z,75.01
2022-12-03T17:24:03.715Z,74.68
2022-12-03T17:26:46.560Z,74.66
2022-12-03T17:29:29.846Z,74.80
2022-12-03T17:32:12.645Z,75.04
2022-12-03T17:34:55.537Z,75.06
2022-12-03T17:37:38.749Z,75.60
2022-12-03T17:40:23.018Z,75.94
2022-12-03T17:43:05.920Z,76.03
2022-12-03T17:45:48.788Z,75.76
2022-12-03T17:48:31.686Z,75.75
2022-12-03T17:51:14.663Z,75.58
2022-12-03T17:53:57.542Z,75.35
2022-12-03T17:56:43.521Z,75.30
2022-12-03T17:59:26.439Z,75.23
2022-12-03T18:02:09.422Z,75.05
2022-12-03T18:04:52.309Z,75.11
2022-12-03T18:07:35.362Z,75.36
2022-12-03T18:10:18.517Z,75.55
2022-12-03T18:13:03.052Z,75.34
2022-12-03T18:15:45.948Z,75.77
2022-12-03T18:18:28.859Z,75.39
2022-12-03T18:21:12.091Z,75.37
2022-12-03T18:23:55.267Z,75.19
2022-12-03T18:26:38.094Z,74.95
2022-12-03T18:29:22.386Z,74.61
2022-12-03T18:32:27.129Z,74.87
2022-12-03T18:35:10.839Z,75.32
2022-12-03T18:37:53.748Z,74.97
2022-12-03T18:40:36.610Z,75.20
2022-12-03T18:43:19.460Z,74.67
2022-12-03T18:46:05.347Z,74.52
2022-12-03T18:48:50.458Z,74.30
2022-12-03T18:51:33.743Z,74.53
2022-12-03T18:54:16.932Z,74.24
2022-12-03T18:56:59.801Z,74.82
2022-12-03T18:59:42.806Z,75.07
2022-12-03T19:03:00.692Z,74.92
2022-12-03T19:05:29.915Z,74.98
2022-12-03T19:08:14.951Z,75.75
2022-12-03T19:11:00.342Z,75.58
2022-12-03T19:13:43.736Z,75.82
2022-12-03T19:16:27.100Z,75.63
2022-12-03T19:19:11.428Z,75.65
2022-12-03T19:21:54.868Z,75.71
2022-12-03T19:24:37.726Z,75.54
2022-12-03T19:27:20.603Z,75.46
2022-12-03T19:30:03.493Z,75.53
2022-12-03T19:32:46.468Z,75.91
2022-12-03T19:35:31.334Z,75.98
2022-12-03T19:38:14.242Z,76.32
2022-12-03T19:41:01.435Z,76.31
2022-12-03T19:43:49.970Z,76.57
2022-12-03T19:46:32.932Z,76.26
2022-12-03T19:49:16.659Z,76.11
2022-12-03T19:52:01.059Z,75.79
2022-12-03T19:54:44.227Z,76.07
2022-12-03T19:57:27.148Z,76.30
2022-12-03T20:00:11.426Z,75.98
2022-12-03T20:02:57.187Z,76.07
2022-12-03T20:05:41.893Z,75.45
2022-12-03T20:08:26.116Z,75.39
2022-12-03T20:11:10.272Z,75.53
2022-12-03T20:13:55.865Z,75.73
2022-12-03T20:16:38.857Z,75.85
2022-12-03T20:19:21.789Z,76.01
2022-12-03T20:22:04.699Z,75.72
2022-12-03T20:24:48.880Z,75.80
2022-12-03T20:27:32.335Z,75.77
2022-12-03T20:30:15.442Z,75.58
2022-12-03T20:32:58.323Z,75.38
2022-12-03T20:35:41.177Z,75.55
2022-12-03T20:38:26.308Z,75.41
2022-12-03T20:41:11.971Z,75.19
2022-12-03T20:43:55.160Z,75.29
2022-12-03T20:46:38.080Z,75.21
2022-12-03T20:49:20.924Z,75.17
2022-12-03T20:52:04.878Z,74.58
2022-12-03T20:54:47.817Z,74.63
2022-12-03T20:57:32.084Z,74.64
2022-12-03T21:00:15.408Z,74.45
2022-12-03T21:02:58.366Z,74.33
2022-12-03T21:05:42.535Z,74.61
2022-12-03T21:08:40.563Z,74.41
2022-12-03T21:11:27.564Z,74.63
2022-12-03T21:14:12.419Z,74.37
2022-12-03T21:17:11.639Z,74.53
2022-12-03T21:19:54.958Z,74.58
2022-12-03T21:22:38.412Z,74.64
2022-12-03T21:25:21.316Z,74.56
2022-12-03T21:28:04.795Z,74.92
2022-12-03T21:30:48.987Z,75.23
2022-12-03T21:33:32.799Z,74.90
2022-12-03T21:36:17.175Z,74.51
2022-12-03T21:39:00.117Z,74.49
2022-12-03T21:42:34.559Z,74.88
2022-12-03T21:44:45.824Z,74.66
2022-12-03T21:47:36.541Z,74.76
2022-12-03T21:50:20.286Z,74.81
2022-12-03T21:53:03.366Z,74.96
2022-12-03T21:55:46.209Z,75.14
2022-12-03T21:58:29.085Z,75.04
2022-12-03T22:01:14.137Z,75.39
2022-12-03T22:03:58.398Z,75.50
2022-12-03T22:06:41.230Z,75.59
2022-12-03T22:09:26.741Z,75.62
2022-12-03T22:12:09.913Z,75.60
2022-12-03T22:14:53.569Z,75.25
2022-12-03T22:17:36.995Z,75.02
2022-12-03T22:20:21.514Z,74.81
2022-12-03T22:23:04.197Z,74.96
2022-12-03T22:25:46.998Z,74.73
2022-12-03T22:28:30.370Z,74.73
2022-12-03T22:31:14.327Z,74.65
2022-12-03T22:33:57.221Z,74.67
2022-12-03T22:36:41.465Z,74.59
2022-12-03T22:39:24.343Z,74.35
2022-12-03T22:42:07.228Z,74.27
2022-12-03T22:44:50.076Z,74.08
2022-12-03T22:47:32.956Z,73.55
2022-12-03T22:50:15.841Z,73.80
2022-12-03T22:53:00.049Z,73.56
2022-12-03T22:55:43.221Z,73.46
2022-12-03T22:58:26.816Z,73.32
2022-12-03T23:01:09.972Z,72.97
2022-12-03T23:03:53.012Z,72.93
2022-12-03T23:06:37.126Z,72.77
2022-12-03T23:09:21.569Z,72.73
2022-12-03T23:12:04.556Z,72.66
2022-12-03T23:14:48.044Z,72.39
2022-12-03T23:17:30.872Z,72.18
2022-12-03T23:20:14.667Z,72.06
2022-12-03T23:22:57.563Z,71.89
2022-12-03T23:25:41.769Z,71.97
2022-12-03T23:28:24.830Z,72.01
2022-12-03T23:31:16.516Z,72.08
2022-12-03T23:34:00.389Z,72.16
2022-12-03T23:36:43.306Z,71.80
2022-12-03T23:39:26.194Z,71.67
2022-12-03T23:42:10.384Z,71.78
2022-12-03T23:44:53.260Z,71.68
2022-12-03T23:47:36.116Z,71.85
2022-12-03T23:50:19.207Z,71.89
2022-12-03T23:53:02.031Z,71.97
2022-12-03T23:55:44.901Z,71.83
2022-12-03T23:58:30.144Z,71.95
